sensor_id;sensor_type;location;lat;lon;timestamp;temperature;humidity
57242;DHT22;43095;53.302;5.786;2022-08-30T00:00:51;15.60;99.90
57242;DHT22;43095;53.302;5.786;2022-08-30T00:03:51;15.60;99.90
57242;DHT22;43095;53.302;5.786;2022-08-30T00:06:37;15.70;99.90
57242;DHT22;43095;53.302;5.786;2022-08-30T00:09:23;15.60;99.90
57242;DHT22;43095;53.302;5.786;2022-08-30T00:12:08;15.70;99.90
57242;DHT22;43095;53.302;5.786;2022-08-30T00:14:54;15.70;99.90
57242;DHT22;43095;53.302;5.786;2022-08-30T00:17:41;15.70;99.90
57242;DHT22;43095;53.302;5.786;2022-08-30T00:20:30;15.70;99.90
57242;DHT22;43095;53.302;5.786;2022-08-30T00:23:17;15.80;99.90
57242;DHT22;43095;53.302;5.786;2022-08-30T00:26:04;15.80;99.90
57242;DHT22;43095;53.302;5.786;2022-08-30T00:28:50;15.80;99.90
57242;DHT22;43095;53.302;5.786;2022-08-30T00:31:36;15.90;99.90
57242;DHT22;43095;53.302;5.786;2022-08-30T00:34:21;15.90;99.90
57242;DHT22;43095;53.302;5.786;2022-08-30T00:37:07;15.90;99.90
57242;DHT22;43095;53.302;5.786;2022-08-30T00:39:53;15.90;99.90
57242;DHT22;43095;53.302;5.786;2022-08-30T00:42:38;15.90;99.90
57242;DHT22;43095;53.302;5.786;2022-08-30T00:45:28;15.90;99.90
57242;DHT22;43095;53.302;5.786;2022-08-30T00:48:14;15.90;99.90
57242;DHT22;43095;53.302;5.786;2022-08-30T00:51:03;15.90;99.90
57242;DHT22;43095;53.302;5.786;2022-08-30T00:53:52;15.90;99.90
57242;DHT22;43095;53.302;5.786;2022-08-30T00:56:39;15.90;99.90
57242;DHT22;43095;53.302;5.786;2022-08-30T00:59:25;15.90;99.90
57242;DHT22;43095;53.302;5.786;2022-08-30T01:02:12;15.90;99.90
57242;DHT22;43095;53.302;5.786;2022-08-30T01:05:01;16.00;99.90
57242;DHT22;43095;53.302;5.786;2022-08-30T01:07:47;15.90;99.90
57242;DHT22;43095;53.302;5.786;2022-08-30T01:10:34;15.90;99.90
57242;DHT22;43095;53.302;5.786;2022-08-30T01:13:21;15.90;99.90
57242;DHT22;43095;53.302;5.786;2022-08-30T01:16:07;15.90;99.90
57242;DHT22;43095;53.302;5.786;2022-08-30T01:18:56;16.00;99.90
57242;DHT22;43095;53.302;5.786;2022-08-30T01:21:49;16.00;99.90
57242;DHT22;43095;53.302;5.786;2022-08-30T01:24:37;16.00;99.90
57242;DHT22;43095;53.302;5.786;2022-08-30T01:27:23;16.00;99.90
57242;DHT22;43095;53.302;5.786;2022-08-30T01:30:11;16.00;99.90
57242;DHT22;43095;53.302;5.786;2022-08-30T01:33:02;16.00;99.90
57242;DHT22;43095;53.302;5.786;2022-08-30T01:41:34;16.00;99.90
57242;DHT22;43095;53.302;5.786;2022-08-30T01:44:20;16.00;99.90
57242;DHT22;43095;53.302;5.786;2022-08-30T01:47:05;15.90;99.90
57242;DHT22;43095;53.302;5.786;2022-08-30T01:49:51;15.90;99.90
57242;DHT22;43095;53.302;5.786;2022-08-30T01:52:37;15.90;99.90
57242;DHT22;43095;53.302;5.786;2022-08-30T01:55:24;15.90;99.90
57242;DHT22;43095;53.302;5.786;2022-08-30T01:58:10;15.90;99.90
57242;DHT22;43095;53.302;5.786;2022-08-30T02:00:56;15.90;99.90
57242;DHT22;43095;53.302;5.786;2022-08-30T02:03:43;15.90;99.90
57242;DHT22;43095;53.302;5.786;2022-08-30T02:06:29;15.90;99.90
57242;DHT22;43095;53.302;5.786;2022-08-30T02:09:15;15.90;99.90
57242;DHT22;43095;53.302;5.786;2022-08-30T02:12:00;15.90;99.90
57242;DHT22;43095;53.302;5.786;2022-08-30T02:14:47;15.90;99.90
57242;DHT22;43095;53.302;5.786;2022-08-30T02:17:32;15.90;99.90
57242;DHT22;43095;53.302;5.786;2022-08-30T02:20:18;15.90;99.90
57242;DHT22;43095;53.302;5.786;2022-08-30T02:23:04;15.90;99.90
57242;DHT22;43095;53.302;5.786;2022-08-30T02:25:49;15.90;99.90
57242;DHT22;43095;53.302;5.786;2022-08-30T02:28:35;15.80;99.90
57242;DHT22;43095;53.302;5.786;2022-08-30T02:31:34;15.80;99.90
57242;DHT22;43095;53.302;5.786;2022-08-30T02:34:20;15.80;99.90
57242;DHT22;43095;53.302;5.786;2022-08-30T02:37:06;15.80;99.90
57242;DHT22;43095;53.302;5.786;2022-08-30T02:39:52;15.80;99.90
57242;DHT22;43095;53.302;5.786;2022-08-30T02:42:37;15.80;99.90
57242;DHT22;43095;53.302;5.786;2022-08-30T02:45:24;15.80;99.90
57242;DHT22;43095;53.302;5.786;2022-08-30T02:48:10;15.80;99.90
57242;DHT22;43095;53.302;5.786;2022-08-30T02:50:56;15.80;99.90
57242;DHT22;43095;53.302;5.786;2022-08-30T02:53:42;15.80;99.90
57242;DHT22;43095;53.302;5.786;2022-08-30T02:56:29;15.70;99.90
57242;DHT22;43095;53.302;5.786;2022-08-30T02:59:16;15.70;99.90
57242;DHT22;43095;53.302;5.786;2022-08-30T03:02:02;15.70;99.90
57242;DHT22;43095;53.302;5.786;2022-08-30T03:04:48;15.60;99.90
57242;DHT22;43095;53.302;5.786;2022-08-30T03:07:34;15.60;99.90
57242;DHT22;43095;53.302;5.786;2022-08-30T03:10:20;15.60;99.90
57242;DHT22;43095;53.302;5.786;2022-08-30T03:13:05;15.50;99.90
57242;DHT22;43095;53.302;5.786;2022-08-30T03:15:54;15.50;99.90
57242;DHT22;43095;53.302;5.786;2022-08-30T03:18:40;15.50;99.90
57242;DHT22;43095;53.302;5.786;2022-08-30T03:21:27;15.40;99.90
57242;DHT22;43095;53.302;5.786;2022-08-30T03:24:13;15.40;99.90
57242;DHT22;43095;53.302;5.786;2022-08-30T03:26:59;15.40;99.90
57242;DHT22;43095;53.302;5.786;2022-08-30T03:29:44;15.30;99.90
57242;DHT22;43095;53.302;5.786;2022-08-30T03:32:30;15.30;99.90
57242;DHT22;43095;53.302;5.786;2022-08-30T03:35:16;15.30;99.90
57242;DHT22;43095;53.302;5.786;2022-08-30T03:38:02;15.30;99.90
57242;DHT22;43095;53.302;5.786;2022-08-30T03:40:48;15.20;99.90
57242;DHT22;43095;53.302;5.786;2022-08-30T03:43:34;15.20;99.90
57242;DHT22;43095;53.302;5.786;2022-08-30T03:46:19;15.20;99.90
57242;DHT22;43095;53.302;5.786;2022-08-30T03:49:13;15.10;99.90
57242;DHT22;43095;53.302;5.786;2022-08-30T03:51:59;15.10;99.90
57242;DHT22;43095;53.302;5.786;2022-08-30T03:54:45;15.00;99.90
57242;DHT22;43095;53.302;5.786;2022-08-30T03:57:30;15.00;99.90
57242;DHT22;43095;53.302;5.786;2022-08-30T04:00:19;15.00;99.90
57242;DHT22;43095;53.302;5.786;2022-08-30T04:03:05;14.90;99.90
57242;DHT22;43095;53.302;5.786;2022-08-30T04:05:54;14.90;99.90
57242;DHT22;43095;53.302;5.786;2022-08-30T04:08:40;14.80;99.90
57242;DHT22;43095;53.302;5.786;2022-08-30T04:11:26;14.80;99.90
57242;DHT22;43095;53.302;5.786;2022-08-30T04:14:12;14.80;99.90
57242;DHT22;43095;53.302;5.786;2022-08-30T04:16:58;14.70;99.90
57242;DHT22;43095;53.302;5.786;2022-08-30T04:19:44;14.60;99.90
57242;DHT22;43095;53.302;5.786;2022-08-30T04:22:30;14.60;99.90
57242;DHT22;43095;53.302;5.786;2022-08-30T04:25:16;14.50;99.90
57242;DHT22;43095;53.302;5.786;2022-08-30T04:28:02;14.40;99.90
57242;DHT22;43095;53.302;5.786;2022-08-30T04:30:48;14.40;99.90
57242;DHT22;43095;53.302;5.786;2022-08-30T04:33:34;14.40;99.90
57242;DHT22;43095;53.302;5.786;2022-08-30T04:36:22;14.30;99.90
57242;DHT22;43095;53.302;5.786;2022-08-30T04:39:08;14.20;99.90
57242;DHT22;43095;53.302;5.786;2022-08-30T04:41:54;14.10;99.90
57242;DHT22;43095;53.302;5.786;2022-08-30T04:44:40;14.10;99.90
57242;DHT22;43095;53.302;5.786;2022-08-30T04:47:25;14.10;99.90
57242;DHT22;43095;53.302;5.786;2022-08-30T04:50:14;14.00;99.90
57242;DHT22;43095;53.302;5.786;2022-08-30T04:53:01;14.00;99.90
57242;DHT22;43095;53.302;5.786;2022-08-30T04:55:46;14.00;99.90
57242;DHT22;43095;53.302;5.786;2022-08-30T04:58:32;14.00;99.90
57242;DHT22;43095;53.302;5.786;2022-08-30T05:01:21;14.00;99.90
57242;DHT22;43095;53.302;5.786;2022-08-30T05:04:08;13.90;99.90
57242;DHT22;43095;53.302;5.786;2022-08-30T05:06:54;14.00;99.90
57242;DHT22;43095;53.302;5.786;2022-08-30T05:09:39;13.90;99.90
57242;DHT22;43095;53.302;5.786;2022-08-30T05:12:25;13.90;99.90
57242;DHT22;43095;53.302;5.786;2022-08-30T05:15:12;13.90;99.90
57242;DHT22;43095;53.302;5.786;2022-08-30T05:17:58;13.80;99.90
57242;DHT22;43095;53.302;5.786;2022-08-30T05:20:44;13.80;99.90
57242;DHT22;43095;53.302;5.786;2022-08-30T05:23:29;13.70;99.90
57242;DHT22;43095;53.302;5.786;2022-08-30T05:26:19;13.70;99.90
57242;DHT22;43095;53.302;5.786;2022-08-30T05:29:05;13.70;99.90
57242;DHT22;43095;53.302;5.786;2022-08-30T05:31:50;13.70;99.90
57242;DHT22;43095;53.302;5.786;2022-08-30T05:34:36;13.70;99.90
57242;DHT22;43095;53.302;5.786;2022-08-30T05:37:22;13.70;99.90
57242;DHT22;43095;53.302;5.786;2022-08-30T05:40:08;13.70;99.90
57242;DHT22;43095;53.302;5.786;2022-08-30T05:42:55;13.70;99.90
57242;DHT22;43095;53.302;5.786;2022-08-30T05:45:41;13.80;99.90
57242;DHT22;43095;53.302;5.786;2022-08-30T05:48:27;13.80;99.90
57242;DHT22;43095;53.302;5.786;2022-08-30T05:51:16;13.80;99.90
57242;DHT22;43095;53.302;5.786;2022-08-30T05:54:03;13.90;99.90
57242;DHT22;43095;53.302;5.786;2022-08-30T05:56:50;13.90;99.90
57242;DHT22;43095;53.302;5.786;2022-08-30T05:59:36;14.00;99.90
57242;DHT22;43095;53.302;5.786;2022-08-30T06:02:22;14.00;99.90
57242;DHT22;43095;53.302;5.786;2022-08-30T06:05:09;14.00;99.90
57242;DHT22;43095;53.302;5.786;2022-08-30T06:07:58;14.10;99.90
57242;DHT22;43095;53.302;5.786;2022-08-30T06:10:44;14.20;99.90
57242;DHT22;43095;53.302;5.786;2022-08-30T06:13:30;14.30;99.90
57242;DHT22;43095;53.302;5.786;2022-08-30T06:16:18;14.30;99.90
57242;DHT22;43095;53.302;5.786;2022-08-30T06:19:06;14.40;99.90
57242;DHT22;43095;53.302;5.786;2022-08-30T06:21:53;14.40;99.90
57242;DHT22;43095;53.302;5.786;2022-08-30T06:24:38;14.40;99.90
57242;DHT22;43095;53.302;5.786;2022-08-30T06:27:42;14.40;99.90
57242;DHT22;43095;53.302;5.786;2022-08-30T06:30:28;14.50;99.90
57242;DHT22;43095;53.302;5.786;2022-08-30T06:33:14;14.60;99.90
57242;DHT22;43095;53.302;5.786;2022-08-30T06:36:05;14.70;99.90
57242;DHT22;43095;53.302;5.786;2022-08-30T06:38:53;14.80;99.90
57242;DHT22;43095;53.302;5.786;2022-08-30T06:41:40;15.10;99.90
57242;DHT22;43095;53.302;5.786;2022-08-30T06:44:41;15.20;99.90
57242;DHT22;43095;53.302;5.786;2022-08-30T06:47:30;15.40;99.90
57242;DHT22;43095;53.302;5.786;2022-08-30T06:50:16;15.60;99.90
57242;DHT22;43095;53.302;5.786;2022-08-30T06:53:02;15.80;99.90
57242;DHT22;43095;53.302;5.786;2022-08-30T06:55:58;15.90;99.90
57242;DHT22;43095;53.302;5.786;2022-08-30T06:58:45;16.10;99.90
57242;DHT22;43095;53.302;5.786;2022-08-30T07:01:31;16.20;99.90
57242;DHT22;43095;53.302;5.786;2022-08-30T07:04:17;16.30;99.90
57242;DHT22;43095;53.302;5.786;2022-08-30T07:07:04;16.40;99.90
57242;DHT22;43095;53.302;5.786;2022-08-30T07:09:50;16.40;99.90
57242;DHT22;43095;53.302;5.786;2022-08-30T07:12:35;16.60;99.90
57242;DHT22;43095;53.302;5.786;2022-08-30T07:15:22;16.60;99.90
57242;DHT22;43095;53.302;5.786;2022-08-30T07:18:09;16.70;99.90
57242;DHT22;43095;53.302;5.786;2022-08-30T07:21:16;16.80;99.90
57242;DHT22;43095;53.302;5.786;2022-08-30T07:24:04;16.90;99.90
57242;DHT22;43095;53.302;5.786;2022-08-30T07:26:53;17.10;99.90
57242;DHT22;43095;53.302;5.786;2022-08-30T07:29:39;17.20;99.90
57242;DHT22;43095;53.302;5.786;2022-08-30T07:32:25;17.20;99.90
57242;DHT22;43095;53.302;5.786;2022-08-30T07:35:12;17.30;99.90
57242;DHT22;43095;53.302;5.786;2022-08-30T07:37:58;17.40;99.90
57242;DHT22;43095;53.302;5.786;2022-08-30T07:40:44;17.50;99.90
57242;DHT22;43095;53.302;5.786;2022-08-30T07:43:31;17.50;99.90
57242;DHT22;43095;53.302;5.786;2022-08-30T07:46:18;17.60;99.90
57242;DHT22;43095;53.302;5.786;2022-08-30T07:49:05;17.70;99.90
57242;DHT22;43095;53.302;5.786;2022-08-30T07:51:56;17.80;99.90
57242;DHT22;43095;53.302;5.786;2022-08-30T07:54:42;17.90;99.90
57242;DHT22;43095;53.302;5.786;2022-08-30T07:57:28;17.90;99.90
57242;DHT22;43095;53.302;5.786;2022-08-30T08:00:18;18.00;99.90
57242;DHT22;43095;53.302;5.786;2022-08-30T08:03:05;18.00;99.90
57242;DHT22;43095;53.302;5.786;2022-08-30T08:05:52;18.10;99.90
57242;DHT22;43095;53.302;5.786;2022-08-30T08:08:39;18.10;99.90
57242;DHT22;43095;53.302;5.786;2022-08-30T08:11:26;18.20;99.90
57242;DHT22;43095;53.302;5.786;2022-08-30T08:14:18;18.30;99.90
57242;DHT22;43095;53.302;5.786;2022-08-30T08:17:06;18.30;99.90
57242;DHT22;43095;53.302;5.786;2022-08-30T08:19:52;18.40;99.90
57242;DHT22;43095;53.302;5.786;2022-08-30T08:22:37;18.50;99.90
57242;DHT22;43095;53.302;5.786;2022-08-30T08:25:24;18.50;99.90
57242;DHT22;43095;53.302;5.786;2022-08-30T08:28:11;18.50;99.90
57242;DHT22;43095;53.302;5.786;2022-08-30T08:30:56;18.60;99.90
57242;DHT22;43095;53.302;5.786;2022-08-30T08:33:42;18.70;99.90
57242;DHT22;43095;53.302;5.786;2022-08-30T08:36:28;18.60;99.90
57242;DHT22;43095;53.302;5.786;2022-08-30T08:39:16;18.70;99.90
57242;DHT22;43095;53.302;5.786;2022-08-30T08:42:17;18.80;99.90
57242;DHT22;43095;53.302;5.786;2022-08-30T08:45:07;18.80;99.90
57242;DHT22;43095;53.302;5.786;2022-08-30T08:48:06;18.80;99.90
57242;DHT22;43095;53.302;5.786;2022-08-30T08:50:56;18.70;99.90
57242;DHT22;43095;53.302;5.786;2022-08-30T08:57:04;18.80;99.90
57242;DHT22;43095;53.302;5.786;2022-08-30T08:59:50;18.90;99.90
57242;DHT22;43095;53.302;5.786;2022-08-30T09:02:45;19.00;99.90
57242;DHT22;43095;53.302;5.786;2022-08-30T09:05:35;19.10;99.90
57242;DHT22;43095;53.302;5.786;2022-08-30T09:08:22;19.10;99.90
57242;DHT22;43095;53.302;5.786;2022-08-30T09:11:10;19.10;99.90
57242;DHT22;43095;53.302;5.786;2022-08-30T09:14:01;19.00;99.90
57242;DHT22;43095;53.302;5.786;2022-08-30T09:22:40;19.00;99.90
57242;DHT22;43095;53.302;5.786;2022-08-30T09:25:31;19.20;99.90
57242;DHT22;43095;53.302;5.786;2022-08-30T09:28:23;19.00;99.90
57242;DHT22;43095;53.302;5.786;2022-08-30T09:31:20;19.00;99.90
57242;DHT22;43095;53.302;5.786;2022-08-30T09:34:15;19.10;99.90
57242;DHT22;43095;53.302;5.786;2022-08-30T09:37:02;19.10;99.90
57242;DHT22;43095;53.302;5.786;2022-08-30T09:39:49;19.20;99.90
57242;DHT22;43095;53.302;5.786;2022-08-30T09:42:34;19.40;99.90
57242;DHT22;43095;53.302;5.786;2022-08-30T09:45:29;19.50;99.90
57242;DHT22;43095;53.302;5.786;2022-08-30T09:48:31;19.60;99.90
57242;DHT22;43095;53.302;5.786;2022-08-30T09:51:35;19.70;99.90
57242;DHT22;43095;53.302;5.786;2022-08-30T09:54:36;19.60;99.90
57242;DHT22;43095;53.302;5.786;2022-08-30T10:00:41;19.80;99.90
57242;DHT22;43095;53.302;5.786;2022-08-30T10:03:59;19.70;99.90
57242;DHT22;43095;53.302;5.786;2022-08-30T10:07:05;19.90;99.50
57242;DHT22;43095;53.302;5.786;2022-08-30T10:20:02;20.40;98.90
57242;DHT22;43095;53.302;5.786;2022-08-30T10:26:22;20.30;97.90
57242;DHT22;43095;53.302;5.786;2022-08-30T10:29:18;20.10;97.50
57242;DHT22;43095;53.302;5.786;2022-08-30T10:32:29;20.10;95.00
57242;DHT22;43095;53.302;5.786;2022-08-30T10:35:23;20.00;94.40
57242;DHT22;43095;53.302;5.786;2022-08-30T10:41:27;20.10;95.70
57242;DHT22;43095;53.302;5.786;2022-08-30T10:44:24;19.80;92.90
57242;DHT22;43095;53.302;5.786;2022-08-30T10:50:41;20.50;91.60
57242;DHT22;43095;53.302;5.786;2022-08-30T10:53:31;20.70;90.70
57242;DHT22;43095;53.302;5.786;2022-08-30T10:56:21;21.00;86.10
57242;DHT22;43095;53.302;5.786;2022-08-30T10:59:10;21.00;84.80
57242;DHT22;43095;53.302;5.786;2022-08-30T11:05:22;21.10;73.20
57242;DHT22;43095;53.302;5.786;2022-08-30T11:11:45;21.20;82.20
57242;DHT22;43095;53.302;5.786;2022-08-30T11:14:42;21.70;78.40
57242;DHT22;43095;53.302;5.786;2022-08-30T11:17:38;21.90;74.10
57242;DHT22;43095;53.302;5.786;2022-08-30T11:20:51;21.70;68.20
57242;DHT22;43095;53.302;5.786;2022-08-30T11:23:38;21.60;66.90
57242;DHT22;43095;53.302;5.786;2022-08-30T11:29:38;21.70;67.20
57242;DHT22;43095;53.302;5.786;2022-08-30T11:33:03;21.70;66.60
57242;DHT22;43095;53.302;5.786;2022-08-30T11:35:54;21.70;68.60
57242;DHT22;43095;53.302;5.786;2022-08-30T11:41:42;21.60;62.60
57242;DHT22;43095;53.302;5.786;2022-08-30T11:44:32;21.70;63.70
57242;DHT22;43095;53.302;5.786;2022-08-30T11:47:38;21.80;62.20
57242;DHT22;43095;53.302;5.786;2022-08-30T11:53:49;22.10;66.00
57242;DHT22;43095;53.302;5.786;2022-08-30T11:57:08;21.90;60.50
57242;DHT22;43095;53.302;5.786;2022-08-30T12:00:07;21.80;62.30
57242;DHT22;43095;53.302;5.786;2022-08-30T12:05:59;22.10;62.60
57242;DHT22;43095;53.302;5.786;2022-08-30T12:08:48;22.10;62.90
57242;DHT22;43095;53.302;5.786;2022-08-30T12:12:03;22.10;60.80
57242;DHT22;43095;53.302;5.786;2022-08-30T12:14:52;22.10;63.80
57242;DHT22;43095;53.302;5.786;2022-08-30T12:20:47;22.20;61.80
57242;DHT22;43095;53.302;5.786;2022-08-30T12:24:00;22.10;60.50
57242;DHT22;43095;53.302;5.786;2022-08-30T12:26:50;22.40;60.90
57242;DHT22;43095;53.302;5.786;2022-08-30T12:29:36;22.30;60.20
57242;DHT22;43095;53.302;5.786;2022-08-30T12:32:22;22.30;60.00
57242;DHT22;43095;53.302;5.786;2022-08-30T12:35:21;22.40;61.20
57242;DHT22;43095;53.302;5.786;2022-08-30T12:38:18;22.30;59.40
57242;DHT22;43095;53.302;5.786;2022-08-30T12:41:18;22.40;57.90
57242;DHT22;43095;53.302;5.786;2022-08-30T12:44:11;22.70;59.00
57242;DHT22;43095;53.302;5.786;2022-08-30T12:47:01;22.80;58.20
57242;DHT22;43095;53.302;5.786;2022-08-30T12:49:48;23.10;56.20
57242;DHT22;43095;53.302;5.786;2022-08-30T12:52:40;23.00;57.10
57242;DHT22;43095;53.302;5.786;2022-08-30T12:55:31;22.40;62.00
57242;DHT22;43095;53.302;5.786;2022-08-30T12:58:53;22.30;64.60
57242;DHT22;43095;53.302;5.786;2022-08-30T13:01:38;22.00;66.10
57242;DHT22;43095;53.302;5.786;2022-08-30T13:04:26;22.10;69.50
57242;DHT22;43095;53.302;5.786;2022-08-30T13:07:27;21.80;71.00
57242;DHT22;43095;53.302;5.786;2022-08-30T13:10:16;21.80;70.60
57242;DHT22;43095;53.302;5.786;2022-08-30T13:13:06;22.10;71.80
57242;DHT22;43095;53.302;5.786;2022-08-30T13:15:51;21.60;72.50
57242;DHT22;43095;53.302;5.786;2022-08-30T13:18:38;21.70;76.30
57242;DHT22;43095;53.302;5.786;2022-08-30T13:21:29;21.90;76.30
57242;DHT22;43095;53.302;5.786;2022-08-30T13:24:14;21.70;78.20
57242;DHT22;43095;53.302;5.786;2022-08-30T13:27:04;21.60;78.70
57242;DHT22;43095;53.302;5.786;2022-08-30T13:29:56;21.90;78.60
57242;DHT22;43095;53.302;5.786;2022-08-30T13:32:43;21.90;77.50
57242;DHT22;43095;53.302;5.786;2022-08-30T13:35:29;21.80;76.60
57242;DHT22;43095;53.302;5.786;2022-08-30T13:38:18;22.00;74.60
57242;DHT22;43095;53.302;5.786;2022-08-30T13:41:04;21.80;72.80
57242;DHT22;43095;53.302;5.786;2022-08-30T13:43:50;22.40;73.90
57242;DHT22;43095;53.302;5.786;2022-08-30T13:46:56;22.30;68.40
57242;DHT22;43095;53.302;5.786;2022-08-30T13:50:03;22.40;66.30
57242;DHT22;43095;53.302;5.786;2022-08-30T13:52:49;22.40;67.40
57242;DHT22;43095;53.302;5.786;2022-08-30T13:55:36;22.70;67.80
57242;DHT22;43095;53.302;5.786;2022-08-30T13:58:23;22.70;65.70
57242;DHT22;43095;53.302;5.786;2022-08-30T14:01:12;22.80;65.70
57242;DHT22;43095;53.302;5.786;2022-08-30T14:03:58;23.00;63.30
57242;DHT22;43095;53.302;5.786;2022-08-30T14:07:00;22.70;59.20
57242;DHT22;43095;53.302;5.786;2022-08-30T14:10:05;22.80;60.50
57242;DHT22;43095;53.302;5.786;2022-08-30T14:13:11;22.40;60.90
57242;DHT22;43095;53.302;5.786;2022-08-30T14:15:59;22.70;62.70
57242;DHT22;43095;53.302;5.786;2022-08-30T14:19:06;22.50;63.10
57242;DHT22;43095;53.302;5.786;2022-08-30T14:21:52;23.00;63.60
57242;DHT22;43095;53.302;5.786;2022-08-30T14:24:38;22.90;63.40
57242;DHT22;43095;53.302;5.786;2022-08-30T14:27:24;22.80;63.50
57242;DHT22;43095;53.302;5.786;2022-08-30T14:30:11;22.80;63.50
57242;DHT22;43095;53.302;5.786;2022-08-30T14:32:57;22.60;64.00
57242;DHT22;43095;53.302;5.786;2022-08-30T14:35:43;22.60;66.40
57242;DHT22;43095;53.302;5.786;2022-08-30T14:38:28;22.70;66.10
57242;DHT22;43095;53.302;5.786;2022-08-30T14:41:14;22.70;67.20
57242;DHT22;43095;53.302;5.786;2022-08-30T14:44:00;22.80;66.90
57242;DHT22;43095;53.302;5.786;2022-08-30T14:46:46;23.10;67.10
57242;DHT22;43095;53.302;5.786;2022-08-30T14:49:32;22.90;66.40
57242;DHT22;43095;53.302;5.786;2022-08-30T14:52:19;22.80;68.30
57242;DHT22;43095;53.302;5.786;2022-08-30T14:55:08;22.70;71.40
57242;DHT22;43095;53.302;5.786;2022-08-30T14:57:54;22.40;76.70
57242;DHT22;43095;53.302;5.786;2022-08-30T15:00:41;22.00;80.40
57242;DHT22;43095;53.302;5.786;2022-08-30T15:03:26;21.90;85.00
57242;DHT22;43095;53.302;5.786;2022-08-30T15:06:12;21.50;90.00
57242;DHT22;43095;53.302;5.786;2022-08-30T15:08:58;21.50;91.30
57242;DHT22;43095;53.302;5.786;2022-08-30T15:11:45;21.80;93.50
57242;DHT22;43095;53.302;5.786;2022-08-30T15:14:31;21.90;91.80
57242;DHT22;43095;53.302;5.786;2022-08-30T15:17:16;22.10;92.00
57242;DHT22;43095;53.302;5.786;2022-08-30T15:20:03;21.90;93.90
57242;DHT22;43095;53.302;5.786;2022-08-30T15:22:55;22.20;93.40
57242;DHT22;43095;53.302;5.786;2022-08-30T15:25:41;22.70;90.10
57242;DHT22;43095;53.302;5.786;2022-08-30T15:28:27;22.40;90.10
57242;DHT22;43095;53.302;5.786;2022-08-30T15:31:14;22.20;89.50
57242;DHT22;43095;53.302;5.786;2022-08-30T15:34:00;22.20;89.50
57242;DHT22;43095;53.302;5.786;2022-08-30T15:36:47;22.10;88.60
57242;DHT22;43095;53.302;5.786;2022-08-30T15:39:34;22.40;87.70
57242;DHT22;43095;53.302;5.786;2022-08-30T15:42:21;22.40;85.60
57242;DHT22;43095;53.302;5.786;2022-08-30T15:45:08;22.40;88.40
57242;DHT22;43095;53.302;5.786;2022-08-30T15:47:54;22.60;88.20
57242;DHT22;43095;53.302;5.786;2022-08-30T15:50:43;22.70;82.70
57242;DHT22;43095;53.302;5.786;2022-08-30T15:53:32;22.30;85.30
57242;DHT22;43095;53.302;5.786;2022-08-30T15:56:17;22.50;87.80
57242;DHT22;43095;53.302;5.786;2022-08-30T15:59:03;22.50;88.40
57242;DHT22;43095;53.302;5.786;2022-08-30T16:01:51;22.30;89.20
57242;DHT22;43095;53.302;5.786;2022-08-30T16:04:37;21.70;92.60
57242;DHT22;43095;53.302;5.786;2022-08-30T16:07:25;21.80;93.70
57242;DHT22;43095;53.302;5.786;2022-08-30T16:10:12;22.00;93.60
57242;DHT22;43095;53.302;5.786;2022-08-30T16:12:58;22.40;92.40
57242;DHT22;43095;53.302;5.786;2022-08-30T16:15:47;22.20;93.10
57242;DHT22;43095;53.302;5.786;2022-08-30T16:18:34;22.10;93.50
57242;DHT22;43095;53.302;5.786;2022-08-30T16:21:26;22.00;91.90
57242;DHT22;43095;53.302;5.786;2022-08-30T16:24:13;21.90;92.10
57242;DHT22;43095;53.302;5.786;2022-08-30T16:26:59;21.90;91.70
57242;DHT22;43095;53.302;5.786;2022-08-30T16:29:45;21.70;92.20
57242;DHT22;43095;53.302;5.786;2022-08-30T16:32:31;21.50;94.30
57242;DHT22;43095;53.302;5.786;2022-08-30T16:35:16;21.50;95.10
57242;DHT22;43095;53.302;5.786;2022-08-30T16:38:02;21.50;95.90
57242;DHT22;43095;53.302;5.786;2022-08-30T16:40:48;21.80;95.60
57242;DHT22;43095;53.302;5.786;2022-08-30T16:43:34;21.60;96.00
57242;DHT22;43095;53.302;5.786;2022-08-30T16:46:22;21.50;97.20
57242;DHT22;43095;53.302;5.786;2022-08-30T16:49:12;21.50;97.60
57242;DHT22;43095;53.302;5.786;2022-08-30T16:51:57;21.40;99.00
57242;DHT22;43095;53.302;5.786;2022-08-30T16:54:43;21.30;99.90
57242;DHT22;43095;53.302;5.786;2022-08-30T16:57:29;21.40;98.90
57242;DHT22;43095;53.302;5.786;2022-08-30T17:00:15;21.40;98.10
57242;DHT22;43095;53.302;5.786;2022-08-30T17:03:02;21.40;97.90
57242;DHT22;43095;53.302;5.786;2022-08-30T17:05:48;21.40;98.90
57242;DHT22;43095;53.302;5.786;2022-08-30T17:08:34;21.20;99.90
57242;DHT22;43095;53.302;5.786;2022-08-30T17:11:20;20.90;99.90
57242;DHT22;43095;53.302;5.786;2022-08-30T17:14:07;20.60;99.90
57242;DHT22;43095;53.302;5.786;2022-08-30T17:16:56;20.60;99.90
57242;DHT22;43095;53.302;5.786;2022-08-30T17:19:44;20.60;99.90
57242;DHT22;43095;53.302;5.786;2022-08-30T17:22:30;20.70;99.90
57242;DHT22;43095;53.302;5.786;2022-08-30T17:25:16;20.60;99.90
57242;DHT22;43095;53.302;5.786;2022-08-30T17:28:02;20.50;99.90
57242;DHT22;43095;53.302;5.786;2022-08-30T17:30:49;20.20;99.90
57242;DHT22;43095;53.302;5.786;2022-08-30T17:33:35;20.20;99.90
57242;DHT22;43095;53.302;5.786;2022-08-30T17:36:23;20.10;99.90
57242;DHT22;43095;53.302;5.786;2022-08-30T17:39:09;20.10;99.90
57242;DHT22;43095;53.302;5.786;2022-08-30T17:41:57;20.00;99.90
57242;DHT22;43095;53.302;5.786;2022-08-30T17:44:45;19.80;99.90
57242;DHT22;43095;53.302;5.786;2022-08-30T17:47:31;19.80;99.90
57242;DHT22;43095;53.302;5.786;2022-08-30T17:50:20;19.70;99.90
57242;DHT22;43095;53.302;5.786;2022-08-30T17:53:07;19.60;99.90
57242;DHT22;43095;53.302;5.786;2022-08-30T17:55:53;19.50;99.90
57242;DHT22;43095;53.302;5.786;2022-08-30T17:58:39;19.40;99.90
57242;DHT22;43095;53.302;5.786;2022-08-30T18:01:25;19.30;99.90
57242;DHT22;43095;53.302;5.786;2022-08-30T18:04:12;19.20;99.90
57242;DHT22;43095;53.302;5.786;2022-08-30T18:07:03;19.10;99.90
57242;DHT22;43095;53.302;5.786;2022-08-30T18:09:50;19.00;99.90
57242;DHT22;43095;53.302;5.786;2022-08-30T18:12:38;18.90;99.90
57242;DHT22;43095;53.302;5.786;2022-08-30T18:15:26;18.80;99.90
57242;DHT22;43095;53.302;5.786;2022-08-30T18:18:15;18.70;99.90
57242;DHT22;43095;53.302;5.786;2022-08-30T18:21:01;18.60;99.90
57242;DHT22;43095;53.302;5.786;2022-08-30T18:23:47;18.60;99.90
57242;DHT22;43095;53.302;5.786;2022-08-30T18:26:34;18.50;99.90
57242;DHT22;43095;53.302;5.786;2022-08-30T18:29:27;18.50;99.90
57242;DHT22;43095;53.302;5.786;2022-08-30T18:32:15;18.40;99.90
57242;DHT22;43095;53.302;5.786;2022-08-30T18:35:02;18.30;99.90
57242;DHT22;43095;53.302;5.786;2022-08-30T18:37:50;18.30;99.90
57242;DHT22;43095;53.302;5.786;2022-08-30T18:40:37;18.30;99.90
57242;DHT22;43095;53.302;5.786;2022-08-30T18:43:23;18.20;99.90
57242;DHT22;43095;53.302;5.786;2022-08-30T18:46:16;18.20;99.90